Time;durP1;ratioP1;P1;durP2;ratioP2;P2;SDS_P1;SDS_P2;PMS_P1;PMS_P2;Temp;Humidity;BMP_temperature;BMP_pressure;BME280_temperature;BME280_humidity;BME280_pressure;Samples;Min_cycle;Max_cycle;Signal;HPM_P1;HPM_P2
2024/03/30 00:02:48;;;;;;;31.83;8.43;;;;;;;14.03;57.07;96937.03;6938506;28;20203;-82
2024/03/30 00:06:10;;;;;;;36.47;9.53;;;;;;;14.02;57.12;96946.25;6920199;28;20341;-81
2024/03/30 00:09:31;;;;;;;33.53;7.77;;;;;;;13.91;57.07;96945.47;6919540;28;20239;-82
2024/03/30 00:12:56;;;;;;;36.13;6.90;;;;;;;14.06;56.29;96931.09;6920404;28;20210;-82
2024/03/30 00:16:18;;;;;;;41.30;8.27;;;;;;;13.85;57.30;96940.28;6919504;28;20208;-82
2024/03/30 00:19:40;;;;;;;36.03;7.90;;;;;;;13.71;57.83;96944.63;6918756;28;20626;-82
2024/03/30 00:23:02;;;;;;;33.50;7.37;;;;;;;13.61;57.29;96933.78;6918116;28;20583;-82
2024/03/30 00:26:23;;;;;;;28.80;6.27;;;;;;;13.90;56.93;96921.34;6917594;28;20231;-82
2024/03/30 00:29:46;;;;;;;42.00;7.83;;;;;;;14.00;56.84;96943.84;6916632;28;20769;-83
2024/03/30 00:33:08;;;;;;;45.13;9.10;;;;;;;13.86;56.55;96940.03;6917429;28;20256;-83
2024/03/30 00:36:28;;;;;;;39.03;7.60;;;;;;;13.61;56.85;96929.19;6915659;28;20239;-82
2024/03/30 00:39:51;;;;;;;36.00;8.27;;;;;;;13.74;57.01;96939.50;6918263;28;20639;-83
2024/03/30 00:43:13;;;;;;;35.93;10.07;;;;;;;13.65;56.95;96921.34;6918682;28;20342;-83
2024/03/30 00:46:33;;;;;;;38.83;9.17;;;;;;;13.65;57.47;96938.41;6915300;28;20607;-84
2024/03/30 00:49:55;;;;;;;24.13;7.03;;;;;;;13.57;57.31;96938.13;6915250;28;20751;-84
2024/03/30 00:53:16;;;;;;;27.17;8.07;;;;;;;13.45;58.13;96945.69;6916522;28;20218;-84
2024/03/30 00:56:38;;;;;;;32.47;7.23;;;;;;;13.81;57.28;96931.09;6919876;28;20800;-84
2024/03/30 01:00:00;;;;;;;32.57;9.47;;;;;;;13.61;57.21;96928.38;6920624;28;20592;-84
2024/03/30 01:03:20;;;;;;;29.37;6.90;;;;;;;13.67;57.40;96932.69;6920459;28;20245;-84
2024/03/30 01:06:42;;;;;;;34.43;7.67;;;;;;;13.62;57.48;96919.19;6922764;28;20212;-82
2024/03/30 01:10:05;;;;;;;35.73;8.23;;;;;;;13.31;57.98;96903.97;6923778;28;20302;-81
2024/03/30 01:13:29;;;;;;;26.60;8.07;;;;;;;13.59;57.10;96898.88;6924022;28;20754;-82
2024/03/30 01:16:50;;;;;;;33.90;7.73;;;;;;;13.54;57.18;96919.69;6923785;28;20279;-82
2024/03/30 01:20:13;;;;;;;28.43;8.10;;;;;;;12.92;59.13;96900.06;6924189;28;20646;-82
2024/03/30 01:23:34;;;;;;;25.10;7.37;;;;;;;13.23;59.18;96918.03;6923316;28;20228;-81
2024/03/30 01:26:58;;;;;;;23.23;7.33;;;;;;;13.29;58.21;96920.47;6921265;28;20620;-85
2024/03/30 01:30:23;;;;;;;29.53;6.90;;;;;;;13.39;58.20;96917.00;6918782;28;20383;-84
2024/03/30 01:33:45;;;;;;;28.60;7.67;;;;;;;13.59;57.62;96911.59;6919840;28;20199;-85
2024/03/30 01:37:05;;;;;;;19.63;7.27;;;;;;;13.69;57.31;96917.03;6919042;28;20350;-85
2024/03/30 01:40:31;;;;;;;24.93;7.93;;;;;;;13.80;56.61;96903.19;6919690;28;20232;-84
2024/03/30 01:43:53;;;;;;;25.77;7.43;;;;;;;13.79;56.64;96914.28;6920725;28;20656;-83
2024/03/30 01:47:16;;;;;;;28.07;7.20;;;;;;;13.81;55.58;96906.72;6919750;28;20294;-84
2024/03/30 01:50:39;;;;;;;33.97;8.30;;;;;;;13.54;55.93;96909.69;6919533;28;20367;-83
2024/03/30 01:54:00;;;;;;;48.43;9.20;;;;;;;13.71;55.68;96910.25;6927338;28;20251;-82
2024/03/30 01:57:22;;;;;;;55.73;12.47;;;;;;;13.40;55.30;96900.47;6895316;28;20213;-82
2024/03/30 02:00:43;;;;;;;47.60;10.93;;;;;;;13.65;54.75;96900.50;6892471;28;20267;-84
2024/03/30 02:04:06;;;;;;;47.10;9.93;;;;;;;13.70;54.02;96891.56;6890457;28;20217;-84
2024/03/30 02:07:27;;;;;;;47.67;9.67;;;;;;;13.86;53.13;96899.41;6890797;28;20327;-84
2024/03/30 02:10:49;;;;;;;46.07;9.13;;;;;;;13.99;52.52;96889.91;6892674;28;20283;-81
2024/03/30 02:14:10;;;;;;;61.80;11.00;;;;;;;13.99;51.75;96895.34;6894860;28;20294;-82
2024/03/30 02:17:31;;;;;;;47.30;11.03;;;;;;;14.11;51.80;96888.53;6891858;28;20832;-84
2024/03/30 02:20:54;;;;;;;54.50;11.03;;;;;;;14.05;51.36;96891.53;6895153;28;20193;-84
2024/03/30 02:24:17;;;;;;;48.73;9.00;;;;;;;13.92;51.49;96875.84;6918306;28;20300;-85
2024/03/30 02:27:40;;;;;;;44.07;8.87;;;;;;;14.13;50.19;96858.44;6918028;28;20761;-85
2024/03/30 02:31:01;;;;;;;54.63;9.43;;;;;;;14.25;50.08;96859.81;6904961;28;20226;-84
2024/03/30 02:34:23;;;;;;;45.03;9.60;;;;;;;14.11;50.08;96863.34;6891244;28;20672;-84
2024/03/30 02:37:46;;;;;;;55.13;9.13;;;;;;;14.20;49.25;96862.53;6890504;28;20238;-85
2024/03/30 02:41:09;;;;;;;47.43;9.80;;;;;;;14.41;48.36;96866.84;6891213;28;20700;-83
2024/03/30 02:44:29;;;;;;;38.47;8.07;;;;;;;14.73;46.53;96867.25;6890883;28;20349;-83
2024/03/30 02:47:51;;;;;;;39.23;9.00;;;;;;;15.15;43.30;96842.34;6890734;28;20232;-83
2024/03/30 02:51:12;;;;;;;31.87;7.87;;;;;;;15.75;41.63;96853.56;6914333;28;20220;-83
2024/03/30 02:54:33;;;;;;;37.50;7.20;;;;;;;16.01;40.91;96851.44;6917917;28;20260;-82
2024/03/30 02:57:56;;;;;;;46.07;7.93;;;;;;;16.44;39.03;96834.94;6919015;28;20225;-82
2024/03/30 03:01:16;;;;;;;34.30;6.13;;;;;;;16.52;39.60;96856.06;6945523;28;20262;-85
2024/03/30 03:04:38;;;;;;;38.37;6.43;;;;;;;16.84;38.20;96852.69;6944898;28;20573;-84
2024/03/30 03:07:58;;;;;;;37.57;8.07;;;;;;;16.99;37.78;96847.06;6943961;28;20309;-85
2024/03/30 03:11:20;;;;;;;35.13;7.30;;;;;;;17.08;37.26;96848.84;6944472;28;20285;-84
2024/03/30 03:14:42;;;;;;;30.40;6.40;;;;;;;16.98;37.65;96843.50;6944502;28;20344;-85
2024/03/30 03:18:04;;;;;;;44.37;7.43;;;;;;;17.38;35.87;96850.31;6927168;28;20228;-85
2024/03/30 03:21:24;;;;;;;30.97;5.83;;;;;;;17.37;36.52;96840.50;6918036;28;20290;-85
2024/03/30 03:24:46;;;;;;;30.37;7.87;;;;;;;17.31;37.08;96841.69;6917884;28;20262;-85
2024/03/30 03:28:07;;;;;;;31.10;6.83;;;;;;;17.00;38.26;96841.31;6917277;28;20231;-85
2024/03/30 03:31:29;;;;;;;34.10;6.17;;;;;;;16.86;38.84;96826.00;6900959;28;20224;-85
2024/03/30 03:34:50;;;;;;;22.60;5.83;;;;;;;17.23;36.61;96823.28;6890965;28;20208;-85
2024/03/30 03:38:11;;;;;;;34.03;6.23;;;;;;;17.34;36.43;96839.19;6889872;28;20312;-85
2024/03/30 03:41:32;;;;;;;27.60;6.00;;;;;;;17.42;37.12;96827.66;6891948;28;20211;-82
2024/03/30 03:44:54;;;;;;;27.87;5.40;;;;;;;17.31;37.98;96814.44;6894365;28;20232;-83
2024/03/30 03:48:16;;;;;;;26.90;4.60;;;;;;;17.51;36.22;96808.72;6890880;28;20243;-83
2024/03/30 03:51:37;;;;;;;26.73;5.80;;;;;;;17.48;36.29;96810.13;6890981;28;20715;-83
2024/03/30 03:54:59;;;;;;;32.47;5.30;;;;;;;17.58;36.55;96788.16;6890258;28;20276;-83
2024/03/30 03:58:19;;;;;;;24.10;6.10;;;;;;;17.54;37.31;96795.31;6891298;28;20844;-82
2024/03/30 04:01:41;;;;;;;28.00;6.03;;;;;;;17.37;37.07;96783.31;6918651;28;20204;-81
2024/03/30 04:05:04;;;;;;;30.20;5.40;;;;;;;17.51;36.61;96795.09;6918647;28;20297;-81
2024/03/30 04:08:26;;;;;;;24.57;6.03;;;;;;;17.64;36.13;96799.78;6918151;28;20311;-80
2024/03/30 04:11:46;;;;;;;23.07;4.60;;;;;;;17.35;36.81;96813.56;6914968;28;20348;-81
2024/03/30 04:15:08;;;;;;;23.83;5.30;;;;;;;17.43;35.35;96812.13;6893540;28;20211;-82
2024/03/30 04:18:30;;;;;;;19.97;4.67;;;;;;;17.75;33.93;96793.06;6891802;28;20228;-82
2024/03/30 04:21:56;;;;;;;27.87;5.07;;;;;;;18.05;32.25;96784.34;6891331;28;20267;-82
2024/03/30 04:25:17;;;;;;;26.27;4.90;;;;;;;18.60;31.60;96808.63;6890437;28;20195;-82
2024/03/30 04:28:38;;;;;;;19.10;5.30;;;;;;;18.85;30.39;96808.09;6888494;28;20779;-82
2024/03/30 04:31:59;;;;;;;26.40;4.60;;;;;;;18.86;30.68;96804.25;6909367;28;20208;-82
2024/03/30 04:35:20;;;;;;;22.10;5.03;;;;;;;19.08;29.81;96814.41;6920899;28;20236;-82
2024/03/30 04:38:43;;;;;;;15.77;4.17;;;;;;;19.32;29.14;96809.53;6920632;28;20220;-82
2024/03/30 04:42:05;;;;;;;20.40;4.23;;;;;;;19.49;29.18;96823.34;6944523;28;20297;-81
2024/03/30 04:45:26;;;;;;;19.37;4.07;;;;;;;19.77;28.08;96830.31;6947794;28;20316;-82
2024/03/30 04:48:48;;;;;;;18.70;3.97;;;;;;;19.89;28.09;96827.81;6947781;28;20312;-82
2024/03/30 04:52:09;;;;;;;18.87;3.90;;;;;;;19.97;27.76;96841.56;6915342;28;20208;-82
2024/03/30 04:55:31;;;;;;;20.63;4.37;;;;;;;19.84;27.87;96847.91;6894016;28;20275;-81
2024/03/30 04:58:52;;;;;;;22.70;4.43;;;;;;;19.89;27.70;96838.75;6893330;28;20311;-82
2024/03/30 05:02:13;;;;;;;21.90;4.57;;;;;;;19.91;27.33;96833.78;6893898;28;20236;-82
2024/03/30 05:05:35;;;;;;;18.33;5.07;;;;;;;19.84;27.39;96839.69;6893571;28;20262;-82
2024/03/30 05:08:56;;;;;;;21.13;5.50;;;;;;;19.98;27.33;96837.69;6910778;28;20520;-81
2024/03/30 05:12:18;;;;;;;29.23;4.90;;;;;;;20.14;27.21;96830.75;6921285;28;20294;-82
2024/03/30 05:15:41;;;;;;;23.90;5.10;;;;;;;19.91;27.54;96826.41;6920157;28;20259;-81
2024/03/30 05:19:09;;;;;;;28.70;5.57;;;;;;;20.03;28.05;96842.22;6915682;28;20648;-82
2024/03/30 05:22:31;;;;;;;19.77;4.50;;;;;;;19.22;30.88;96845.31;6916376;28;20246;-81
2024/03/30 05:25:54;;;;;;;20.00;4.30;;;;;;;19.03;31.62;96845.41;6916114;28;20290;-83
2024/03/30 05:29:16;;;;;;;23.17;4.73;;;;;;;18.69;32.51;96850.47;6891480;28;20241;-82
2024/03/30 05:32:37;;;;;;;19.20;4.43;;;;;;;18.60;33.59;96838.66;6888688;28;20209;-82
2024/03/30 05:35:59;;;;;;;16.63;3.87;;;;;;;18.24;34.43;96836.88;6889258;28;20272;-83
2024/03/30 05:39:20;;;;;;;23.10;4.57;;;;;;;18.29;34.49;96848.50;6889999;28;20271;-81
2024/03/30 05:42:42;;;;;;;21.90;5.27;;;;;;;18.04;35.17;96848.16;6893781;28;20299;-82
2024/03/30 05:46:05;;;;;;;18.67;5.50;;;;;;;17.84;36.15;96843.03;6893865;28;20313;-81
2024/03/30 05:49:26;;;;;;;22.00;4.60;;;;;;;17.68;36.22;96842.50;6905577;28;20255;-82
2024/03/30 05:52:47;;;;;;;17.63;3.73;;;;;;;17.81;36.61;96844.44;6921899;28;20219;-81
2024/03/30 05:56:09;;;;;;;23.20;4.07;;;;;;;17.54;36.80;96833.47;6894941;28;20742;-82
2024/03/30 05:59:29;;;;;;;24.90;4.70;;;;;;;17.77;36.88;96837.16;6914647;28;20286;-81
2024/03/30 06:02:52;;;;;;;21.50;4.60;;;;;;;17.67;37.78;96823.72;6896261;28;20212;-82
2024/03/30 06:06:13;;;;;;;20.23;4.53;;;;;;;17.89;36.97;96838.34;6900012;28;20208;-82
2024/03/30 06:09:36;;;;;;;16.90;4.53;;;;;;;17.79;38.31;96846.69;6894637;28;20604;-82
2024/03/30 06:12:57;;;;;;;20.83;4.93;;;;;;;17.95;37.08;96839.88;6909689;28;20211;-82
2024/03/30 06:16:19;;;;;;;17.43;5.40;;;;;;;18.55;36.01;96835.22;6896629;28;20201;-82
2024/03/30 06:19:42;;;;;;;18.57;4.23;;;;;;;18.77;35.27;96829.84;6895313;28;20225;-82
2024/03/30 06:23:04;;;;;;;25.03;5.13;;;;;;;18.30;35.99;96831.03;6919838;28;20293;-81
2024/03/30 06:26:24;;;;;;;14.03;4.87;;;;;;;18.82;34.61;96835.22;6909578;28;20349;-82
2024/03/30 06:29:46;;;;;;;19.50;4.40;;;;;;;19.22;32.72;96821.50;6919724;28;20574;-82
2024/03/30 06:33:09;;;;;;;24.10;5.23;;;;;;;19.44;32.17;96810.59;6899148;28;20223;-82
2024/03/30 06:36:32;;;;;;;21.63;5.20;;;;;;;20.12;31.96;96815.78;6916833;28;20197;-82
2024/03/30 06:43:44;;;;;;;20.77;5.40;;;;;;;20.67;29.66;96809.56;6903576;28;20283;-82
2024/03/30 06:47:06;;;;;;;29.53;5.43;;;;;;;21.00;29.25;96812.75;6919419;28;20211;-82
2024/03/30 06:50:28;;;;;;;28.60;5.60;;;;;;;21.25;28.94;96812.78;6917046;28;20317;-82
2024/03/30 06:53:50;;;;;;;33.60;5.80;;;;;;;21.67;27.78;96820.25;6914381;28;20301;-81
2024/03/30 06:57:12;;;;;;;24.30;4.60;;;;;;;21.88;27.45;96812.94;6918691;28;20304;-84
2024/03/30 07:00:34;;;;;;;33.50;5.33;;;;;;;22.37;26.77;96806.88;6915072;28;20613;-82
2024/03/30 07:03:54;;;;;;;24.83;5.33;;;;;;;22.33;26.74;96808.66;6896721;28;20351;-82
2024/03/30 07:07:16;;;;;;;32.83;6.03;;;;;;;22.52;25.08;96793.44;6918985;28;20208;-81
2024/03/30 07:10:38;;;;;;;27.60;6.17;;;;;;;22.21;25.29;96794.81;6904650;28;20319;-84
2024/03/30 07:13:59;;;;;;;30.63;6.63;;;;;;;22.68;25.33;96802.75;6891904;28;20302;-83
2024/03/30 07:17:21;;;;;;;43.57;7.07;;;;;;;22.91;25.53;96804.09;6891926;28;20218;-85
2024/03/30 07:20:42;;;;;;;34.53;7.33;;;;;;;22.89;24.88;96778.84;6901761;28;20293;-84
2024/03/30 07:24:04;;;;;;;34.93;6.77;;;;;;;23.17;24.08;96788.25;6890102;28;20210;-85
2024/03/30 07:27:26;;;;;;;33.17;6.23;;;;;;;22.90;24.49;96796.94;6890472;28;20625;-85
2024/03/30 07:30:53;;;;;;;30.37;6.03;;;;;;;22.50;24.75;96792.97;6900210;28;20722;-85
2024/03/30 07:34:14;;;;;;;32.57;6.47;;;;;;;22.43;25.20;96787.16;6895613;28;20227;-84
2024/03/30 07:37:37;;;;;;;38.07;6.90;;;;;;;22.73;24.07;96763.28;6908628;28;20702;-83
2024/03/30 07:40:58;;;;;;;27.57;5.97;;;;;;;22.49;25.73;96779.56;6888816;28;20302;-82
2024/03/30 07:44:24;;;;;;;32.47;5.97;;;;;;;21.38;25.97;96792.66;6888949;28;20343;-83
2024/03/30 07:47:46;;;;;;;21.87;5.33;;;;;;;21.17;25.87;96777.16;6897433;28;20235;-82
2024/03/30 07:51:06;;;;;;;23.30;5.87;;;;;;;21.41;25.85;96784.56;6904683;28;20457;-82
2024/03/30 07:54:28;;;;;;;25.77;5.87;;;;;;;21.42;25.36;96777.97;6890239;28;20583;-84
2024/03/30 07:57:49;;;;;;;26.40;6.53;;;;;;;21.62;26.18;96781.97;6915361;28;20327;-83
2024/03/30 08:01:11;;;;;;;30.47;7.00;;;;;;;21.16;26.94;96786.50;6910595;28;20655;-83
2024/03/30 08:04:33;;;;;;;31.90;6.77;;;;;;;20.95;26.73;96771.81;6912854;28;20298;-81
2024/03/30 08:07:54;;;;;;;24.57;5.87;;;;;;;21.15;27.31;96785.69;6915816;28;20271;-83
2024/03/30 08:11:15;;;;;;;33.10;6.00;;;;;;;20.92;27.82;96766.97;6917447;28;20249;-82
2024/03/30 08:14:36;;;;;;;23.20;5.17;;;;;;;21.13;27.36;96774.25;6899033;28;20290;-82
2024/03/30 08:17:58;;;;;;;32.60;5.30;;;;;;;21.42;26.93;96777.97;6888903;28;20276;-82
2024/03/30 08:21:23;;;;;;;27.87;5.77;;;;;;;22.01;27.01;96776.31;6890597;28;20274;-81
2024/03/30 08:24:44;;;;;;;31.10;5.83;;;;;;;22.54;27.54;96784.88;6889540;28;20259;-83
2024/03/30 08:28:07;;;;;;;29.63;6.30;;;;;;;22.33;27.91;96793.00;6888638;28;20267;-82
2024/03/30 08:31:29;;;;;;;26.33;7.23;;;;;;;21.99;29.52;96800.50;6888558;28;20239;-83
2024/03/30 08:34:50;;;;;;;29.43;6.00;;;;;;;22.13;28.13;96796.44;6891179;28;20216;-83
2024/03/30 08:38:12;;;;;;;33.63;6.90;;;;;;;22.15;27.69;96798.88;6889198;28;20231;-83
2024/03/30 08:41:33;;;;;;;25.20;5.80;;;;;;;22.07;28.07;96785.97;6888670;28;20339;-83
2024/03/30 08:44:54;;;;;;;28.83;5.63;;;;;;;22.31;29.58;96798.00;6889126;28;20235;-82
2024/03/30 08:48:15;;;;;;;23.80;6.03;;;;;;;22.39;29.63;96788.94;6891400;28;20574;-82
2024/03/30 08:51:38;;;;;;;23.53;5.50;;;;;;;22.39;29.83;96797.19;6916228;28;20358;-82
2024/03/30 08:55:00;;;;;;;24.03;6.07;;;;;;;22.30;30.40;96793.66;6920108;28;20298;-83
2024/03/30 08:58:21;;;;;;;23.37;5.80;;;;;;;22.12;31.07;96788.56;6916850;28;20296;-82
2024/03/30 09:01:45;;;;;;;33.00;5.67;;;;;;;22.18;31.30;96799.00;6916948;28;20211;-82
2024/03/30 09:05:06;;;;;;;27.10;6.67;;;;;;;21.99;31.50;96793.09;6917690;28;20694;-82
2024/03/30 09:08:29;;;;;;;25.47;6.03;;;;;;;21.98;32.08;96799.72;6917146;28;20314;-83
2024/03/30 09:11:50;;;;;;;23.87;5.90;;;;;;;21.73;32.76;96805.25;6916631;28;20233;-82
2024/03/30 09:15:11;;;;;;;24.73;5.50;;;;;;;21.65;32.44;96801.34;6919000;28;20704;-83
2024/03/30 09:18:32;;;;;;;25.03;5.80;;;;;;;21.14;33.16;96797.78;6926068;28;20735;-82
2024/03/30 09:21:54;;;;;;;37.80;9.00;;;;;;;21.63;32.52;96789.91;6927595;28;20209;-83
2024/03/30 09:25:16;;;;;;;32.10;8.97;;;;;;;21.64;32.86;96790.69;6927602;28;20232;-83
2024/03/30 09:28:37;;;;;;;34.73;6.63;;;;;;;21.72;33.57;96790.72;6925493;28;20645;-82
2024/03/30 09:31:59;;;;;;;28.87;6.17;;;;;;;21.41;33.81;96808.44;6922752;28;20374;-82
2024/03/30 09:35:21;;;;;;;32.60;7.43;;;;;;;21.55;35.38;96803.63;6924557;28;20211;-83
2024/03/30 09:38:41;;;;;;;33.67;10.17;;;;;;;21.46;36.50;96806.34;6925370;28;20225;-83
2024/03/30 09:42:05;;;;;;;29.70;6.57;;;;;;;21.57;37.33;96801.34;6928649;28;20205;-83
2024/03/30 09:45:26;;;;;;;24.33;5.60;;;;;;;21.46;39.62;96811.84;6925603;28;20277;-82
2024/03/30 09:48:51;;;;;;;25.07;6.13;;;;;;;21.32;40.71;96807.63;6922853;28;20312;-82
2024/03/30 09:52:12;;;;;;;29.50;6.47;;;;;;;20.63;41.68;96753.81;6922184;28;20235;-83
2024/03/30 09:55:36;;;;;;;28.17;6.50;;;;;;;20.57;42.55;96793.44;6921810;28;20271;-82
2024/03/30 09:58:59;;;;;;;23.40;6.50;;;;;;;20.87;42.01;96802.72;6921956;28;20220;-81
2024/03/30 10:02:21;;;;;;;30.97;6.87;;;;;;;21.00;40.68;96804.53;6921327;28;20781;-82
2024/03/30 10:05:42;;;;;;;30.83;5.87;;;;;;;21.04;41.66;96809.03;6919652;28;20297;-82
2024/03/30 10:09:06;;;;;;;27.70;7.63;;;;;;;20.74;42.60;96793.47;6920799;28;20287;-82
2024/03/30 10:12:30;;;;;;;30.87;7.53;;;;;;;20.53;42.61;96794.38;6921800;28;20233;-83
2024/03/30 10:15:53;;;;;;;31.77;6.93;;;;;;;20.91;41.43;96785.34;6921906;28;20266;-83
2024/03/30 10:19:15;;;;;;;38.17;7.70;;;;;;;21.04;40.92;96781.66;6921253;28;20228;-82
2024/03/30 10:22:37;;;;;;;39.60;7.30;;;;;;;21.14;40.24;96779.38;6921515;28;20255;-82
2024/03/30 10:26:04;;;;;;;28.83;7.43;;;;;;;21.08;41.08;96780.69;6920595;28;20666;-82
2024/03/30 10:29:26;;;;;;;40.27;8.93;;;;;;;21.17;40.52;96778.75;6919623;28;20222;-82
2024/03/30 10:32:49;;;;;;;31.20;8.97;;;;;;;21.37;40.67;96783.59;6921294;28;20865;-82
2024/03/30 10:36:09;;;;;;;33.23;9.23;;;;;;;21.58;40.40;96764.56;6921109;28;20346;-82
2024/03/30 10:39:32;;;;;;;27.87;8.47;;;;;;;21.89;40.29;96787.94;6920633;28;20232;-82
2024/03/30 10:42:55;;;;;;;39.17;8.47;;;;;;;21.95;40.95;96780.38;6921762;28;20717;-82
2024/03/30 10:46:16;;;;;;;33.13;7.87;;;;;;;22.00;41.12;96767.25;6920281;28;20297;-83
2024/03/30 10:49:38;;;;;;;34.23;8.80;;;;;;;22.08;41.68;96782.88;6920489;28;20231;-82
2024/03/30 10:53:04;;;;;;;31.60;8.03;;;;;;;22.07;40.90;96777.75;6911211;28;20229;-82
2024/03/30 10:56:25;;;;;;;40.07;8.37;;;;;;;22.24;40.64;96761.22;6911687;28;20211;-84
2024/03/30 10:59:47;;;;;;;31.13;7.67;;;;;;;22.09;40.33;96770.81;6912602;28;20230;-83
2024/03/30 11:03:09;;;;;;;30.70;7.00;;;;;;;22.31;39.12;96773.28;6900736;28;20289;-81
2024/03/30 11:06:31;;;;;;;25.77;6.60;;;;;;;22.63;38.21;96769.97;6902720;28;20302;-84
2024/03/30 11:09:53;;;;;;;28.47;8.13;;;;;;;22.68;39.25;96742.31;6918568;28;20286;-84
2024/03/30 11:13:14;;;;;;;40.37;9.17;;;;;;;22.91;37.87;96767.53;6918695;28;20244;-82
2024/03/30 11:16:38;;;;;;;31.73;9.23;;;;;;;23.03;37.47;96757.44;6917156;28;20202;-85
2024/03/30 11:20:05;;;;;;;38.07;8.53;;;;;;;23.01;37.80;96759.69;6917582;28;20229;-83
2024/03/30 11:23:37;;;;;;;27.87;7.60;;;;;;;22.94;37.15;96766.84;6901404;28;20634;-83
2024/03/30 11:27:00;;;;;;;35.70;12.37;;;;;;;23.23;36.11;96753.09;6910643;28;20406;-82
2024/03/30 11:30:29;;;;;;;39.70;11.13;;;;;;;23.43;36.08;96755.84;6893932;28;20228;-83
2024/03/30 11:33:58;;;;;;;42.70;11.50;;;;;;;23.50;36.51;96739.63;6890505;28;20252;-82
2024/03/30 11:37:24;;;;;;;35.00;9.10;;;;;;;23.64;36.33;96758.56;6890658;28;20208;-81
2024/03/30 11:40:51;;;;;;;37.30;8.50;;;;;;;23.70;35.75;96759.97;6890525;28;20245;-85
2024/03/30 11:44:16;;;;;;;33.10;8.43;;;;;;;23.68;35.95;96760.34;6890142;28;20216;-81
2024/03/30 11:47:39;;;;;;;37.23;9.77;;;;;;;23.75;36.50;96752.31;6889782;28;20229;-81
2024/03/30 11:51:00;;;;;;;30.93;7.43;;;;;;;23.71;36.63;96759.63;6890446;28;20234;-85
2024/03/30 11:54:23;;;;;;;25.23;6.93;;;;;;;23.49;35.99;96743.50;6899279;28;20212;-83
2024/03/30 11:57:53;;;;;;;33.63;8.63;;;;;;;23.78;36.05;96751.63;6888704;28;20319;-82
2024/03/30 12:01:15;;;;;;;29.73;7.63;;;;;;;23.44;35.53;96724.47;6889092;28;20227;-82
2024/03/30 12:04:38;;;;;;;26.47;7.73;;;;;;;23.76;34.40;96726.41;6895479;28;20564;-83
2024/03/30 12:08:00;;;;;;;38.90;9.60;;;;;;;23.32;36.12;96740.91;6913910;28;20286;-82
2024/03/30 12:11:22;;;;;;;35.17;8.70;;;;;;;23.36;36.79;96750.09;6910763;28;20282;-82
2024/03/30 12:14:45;;;;;;;34.60;8.23;;;;;;;23.75;36.34;96746.00;6899816;28;20207;-82
2024/03/30 12:18:07;;;;;;;39.63;8.57;;;;;;;23.81;36.70;96739.97;6901690;28;20243;-82
2024/03/30 12:21:30;;;;;;;44.40;8.50;;;;;;;23.43;37.48;96749.56;6895673;28;20328;-82
2024/03/30 12:24:51;;;;;;;36.67;9.17;;;;;;;23.09;37.63;96744.28;6903721;28;20236;-82
2024/03/30 12:28:13;;;;;;;33.07;8.90;;;;;;;23.30;37.88;96750.66;6899992;28;20282;-82
2024/03/30 12:31:35;;;;;;;35.90;8.17;;;;;;;23.09;38.33;96749.78;6899429;28;20256;-82
2024/03/30 12:34:58;;;;;;;50.60;10.27;;;;;;;22.40;40.21;96743.03;6907106;28;20612;-82
2024/03/30 12:38:36;;;;;;;35.53;8.13;;;;;;;22.33;40.62;96751.00;6897019;28;20228;-82
2024/03/30 12:41:57;;;;;;;32.93;9.20;;;;;;;22.12;40.24;96747.38;6796315;29;20245;-83
2024/03/30 12:45:18;;;;;;;30.80;8.43;;;;;;;22.28;39.53;96765.72;6803876;29;20199;-83
2024/03/30 12:48:44;;;;;;;34.57;7.83;;;;;;;22.17;38.97;96738.94;6802994;29;20368;-82
2024/03/30 12:52:06;;;;;;;36.97;8.20;;;;;;;22.37;37.15;96755.50;6803755;29;20230;-82
2024/03/30 12:55:28;;;;;;;38.93;9.57;;;;;;;22.67;36.38;96748.91;6788829;29;20296;-82
2024/03/30 12:58:49;;;;;;;36.00;10.43;;;;;;;22.29;36.49;96753.59;6785365;29;20323;-82
2024/03/30 13:02:12;;;;;;;33.40;8.53;;;;;;;21.81;36.76;96755.03;6790390;29;20288;-81
2024/03/30 13:05:37;;;;;;;31.57;9.03;;;;;;;22.47;35.91;96746.09;6788869;29;20222;-82
2024/03/30 13:08:57;;;;;;;41.90;9.20;;;;;;;22.61;36.66;96746.69;6798880;29;20232;-83
2024/03/30 13:12:20;;;;;;;26.37;8.20;;;;;;;22.61;36.06;96772.22;6791330;29;20244;-82
2024/03/30 13:15:41;;;;;;;33.80;8.17;;;;;;;21.76;36.35;96785.38;6795020;29;20239;-81
2024/03/30 13:19:03;;;;;;;30.47;7.60;;;;;;;21.06;35.96;96806.00;6883255;28;20266;-81
2024/03/30 13:22:26;;;;;;;30.33;6.60;;;;;;;20.96;36.14;96798.06;6919252;28;20573;-81
2024/03/30 13:25:48;;;;;;;32.73;5.80;;;;;;;21.19;35.14;96814.09;6911379;28;20269;-82
2024/03/30 13:29:10;;;;;;;28.97;6.13;;;;;;;21.93;34.12;96808.13;6897462;28;20225;-81
2024/03/30 13:32:30;;;;;;;25.73;6.27;;;;;;;21.44;34.33;96810.53;6893746;28;20234;-81
2024/03/30 13:35:52;;;;;;;23.30;5.47;;;;;;;21.59;34.03;96815.56;6891220;28;20235;-81
2024/03/30 13:39:15;;;;;;;18.30;5.43;;;;;;;21.74;34.04;96810.41;6887828;28;20302;-82
2024/03/30 13:42:35;;;;;;;34.70;14.43;;;;;;;21.62;34.07;96828.59;6888434;28;20311;-80
2024/03/30 13:45:57;;;;;;;16.10;5.30;;;;;;;21.58;33.99;96842.16;6895942;28;20214;-81
2024/03/30 13:49:17;;;;;;;18.50;5.30;;;;;;;21.01;35.04;96842.59;6908398;28;20820;-81
2024/03/30 13:52:39;;;;;;;26.30;5.83;;;;;;;;;;6904340;28;20700;-81
2024/03/30 13:56:02;;;;;;;19.53;4.83;;;;;;;20.72;36.12;96855.16;6899832;28;20304;-80
2024/03/30 13:59:22;;;;;;;18.73;5.80;;;;;;;20.71;35.85;96859.84;6899127;28;20691;-80
2024/03/30 14:02:44;;;;;;;18.60;6.47;;;;;;;21.33;34.99;96851.19;6907901;28;20216;-80
2024/03/30 14:06:04;;;;;;;18.43;4.97;;;;;;;21.13;34.94;96877.56;6903841;28;20667;-80
2024/03/30 14:09:26;;;;;;;32.43;12.77;;;;;;;21.10;35.56;96862.56;6910305;28;20241;-80
2024/03/30 14:12:48;;;;;;;15.77;4.57;;;;;;;21.23;35.89;96875.34;6909312;28;20263;-80
2024/03/30 14:16:12;;;;;;;18.63;4.20;;;;;;;21.02;35.67;96864.16;6904762;28;20248;-80
2024/03/30 14:19:32;;;;;;;17.00;4.80;;;;;;;21.20;35.19;96874.03;6900929;28;20237;-80
2024/03/30 14:22:54;;;;;;;18.80;4.77;;;;;;;21.44;35.33;96873.59;6906643;28;20205;-79
2024/03/30 14:26:14;;;;;;;15.57;3.93;;;;;;;21.35;35.24;96859.06;6902515;28;20217;-81
2024/03/30 14:29:37;;;;;;;18.30;4.47;;;;;;;21.20;35.18;96874.03;6901897;28;20283;-81
2024/03/30 14:32:59;;;;;;;23.10;5.47;;;;;;;21.12;35.63;96870.47;6906090;28;20327;-80
2024/03/30 14:36:25;;;;;;;22.30;4.53;;;;;;;21.07;35.39;96874.19;6915719;28;20219;-81
2024/03/30 14:39:47;;;;;;;17.17;4.00;;;;;;;20.91;35.94;96870.25;6916060;28;20323;-80
2024/03/30 14:43:07;;;;;;;14.63;4.17;;;;;;;21.53;35.48;96880.72;6915552;28;20213;-81
2024/03/30 14:46:30;;;;;;;20.23;5.70;;;;;;;21.17;36.05;96880.16;6914244;28;20208;-81
2024/03/30 14:49:52;;;;;;;28.27;5.23;;;;;;;21.01;36.14;96874.63;6916657;28;20232;-80
2024/03/30 14:53:12;;;;;;;23.03;5.67;;;;;;;21.19;36.12;96882.59;6916689;28;20244;-81
2024/03/30 14:56:34;;;;;;;21.77;4.30;;;;;;;20.87;36.52;96876.66;6916187;28;20208;-81
2024/03/30 14:59:54;;;;;;;18.97;4.97;;;;;;;21.12;36.78;96882.25;6916359;28;20282;-80
2024/03/30 15:03:18;;;;;;;28.90;5.20;;;;;;;20.99;36.68;96877.69;6916234;28;20213;-81
2024/03/30 15:06:40;;;;;;;13.00;4.57;;;;;;;20.83;36.68;96892.13;6915992;28;20207;-81
2024/03/30 15:10:01;;;;;;;26.17;7.17;;;;;;;20.69;37.28;96883.19;6916381;28;20231;-80
2024/03/30 15:13:22;;;;;;;19.47;4.73;;;;;;;20.76;37.74;96876.13;6916162;28;20286;-81
2024/03/30 15:16:44;;;;;;;19.23;5.10;;;;;;;20.80;37.11;96865.38;6906901;28;20299;-81
2024/03/30 15:20:08;;;;;;;21.67;4.77;;;;;;;20.88;37.43;96887.31;6908108;28;20298;-81
2024/03/30 15:23:29;;;;;;;27.00;5.00;;;;;;;20.83;37.47;96901.94;6908503;28;20295;-80
2024/03/30 15:26:51;;;;;;;20.70;4.43;;;;;;;20.96;37.26;96896.69;6899136;28;20258;-80
2024/03/30 15:33:54;;;;;;;24.43;5.53;;;;;;;21.06;37.13;96890.94;6899863;28;20251;-80
2024/03/30 15:37:17;;;;;;;25.77;5.80;;;;;;;21.10;37.50;96900.16;6902542;28;20274;-80
2024/03/30 15:40:39;;;;;;;22.70;5.50;;;;;;;20.77;37.12;96911.41;6904636;28;20273;-80
2024/03/30 15:44:02;;;;;;;17.60;5.37;;;;;;;20.75;37.17;96928.50;6901144;28;20594;-80
2024/03/30 15:47:23;;;;;;;22.43;4.50;;;;;;;20.59;37.31;96936.31;6904827;28;20209;-80